This is the latest recevied weather packets stored in our database for station/object KF6ILA. If no packets are shown the sender has not sent any weather packets the latest 1 day(s).
| Time | Temp. | Humidity | Pressure | Rain* | Wind** | Luminosity | Snow |
|---|---|---|---|---|---|---|---|
| 1778025982 | 7.78° C | 82% | 1010.4 hPa | 0 mm | 4.92 m/s, 266° | 176 W/m² | - |
| 1778025684 | 8.33° C | 79% | 1010.3 hPa | 0 mm | 6.26 m/s, 271° | 123 W/m² | - |
| 1778025387 | 8.89° C | 79% | 1010.5 hPa | 0 mm | 8.49 m/s, 255° | 654 W/m² | - |
| 1778025090 | 7.78° C | 84% | 1010.1 hPa | 0 mm | 7.15 m/s, 267° | 626 W/m² | - |
| 1778024793 | 7.78° C | 83% | 1010 hPa | 0 mm | 5.36 m/s, 274° | 181 W/m² | - |
| 1778024496 | 7.78° C | 79% | 1010 hPa | 0 mm | 7.6 m/s, 279° | 165 W/m² | - |
| 1778024199 | 8.33° C | 81% | 1010.1 hPa | 0 mm | 7.15 m/s, 275° | 715 W/m² | - |
| 1778023902 | 7.78° C | 79% | 1010 hPa | 0 mm | 8.05 m/s, 249° | 229 W/m² | - |
| 1778023011 | 7.78° C | 82% | 1010.2 hPa | 0 mm | 6.71 m/s, 254° | 135 W/m² | - |
| 1778022714 | 7.78° C | 81% | 1010.2 hPa | 0 mm | 8.49 m/s, 258° | 214 W/m² | - |
| 1778022417 | 7.78° C | 81% | 1009.9 hPa | 0 mm | 8.05 m/s, 252° | 160 W/m² | - |
| 1778021823 | 8.33° C | 80% | 1009.8 hPa | 0 mm | 9.39 m/s, 289° | 269 W/m² | - |
| 1778021526 | 8.33° C | 81% | 1010.1 hPa | 0 mm | 4.92 m/s, 263° | 322 W/m² | - |
| 1778021229 | 8.89° C | 80% | 1010.2 hPa | 0 mm | 5.36 m/s, 275° | 283 W/m² | - |
| 1778020635 | 8.89° C | 82% | 1010.3 hPa | 0 mm | 5.36 m/s, 257° | 974 W/m² | - |
| 1778020338 | 8.33° C | 80% | 1010.3 hPa | 0 mm | 8.49 m/s, 260° | 325 W/m² | - |
| 1778020041 | 8.89° C | 81% | 1010.5 hPa | 0 mm | 6.71 m/s, 271° | 353 W/m² | - |
| 1778019744 | 9.44° C | 81% | 1010.4 hPa | 0 mm | 8.94 m/s, 255° | 1063 W/m² | - |
| 1778018853 | 8.89° C | 81% | 1011.3 hPa | 0 mm | 8.94 m/s, 265° | 350 W/m² | - |
| 1778018556 | 9.44° C | 82% | 1011.3 hPa | 0 mm | 8.94 m/s, 251° | 1102 W/m² | - |
| 1778018259 | 8.89° C | 85% | 1011.3 hPa | 0 mm | 6.71 m/s, 263° | 1208 W/m² | - |
| 1778017962 | 8.33° C | 85% | 1011.4 hPa | 0 mm | 9.83 m/s, 260° | 318 W/m² | - |
| 1778017665 | 8.89° C | 88% | 1011.3 hPa | 0 mm | 4.92 m/s, 282° | 399 W/m² | - |
| 1778017368 | 8.33° C | 90% | 1011.4 hPa | 0 mm | 8.49 m/s, 266° | 492 W/m² | - |
| 1778017072 | 7.78° C | 91% | 1011.6 hPa | 0 mm | 7.15 m/s, 257° | 492 W/m² | - |
* Rain latest hour (hover to see other rain measurements)
** Current wind speed in m/s (hover to see current wind gust speed)